Time;durP1;ratioP1;P1;durP2;ratioP2;P2;SDS_P1;SDS_P2;PMS_P1;PMS_P2;Temp;Humidity;BMP_temperature;BMP_pressure;BME280_temperature;BME280_humidity;BME280_pressure;Samples;Min_cycle;Max_cycle;Signal;HPM_P1;HPM_P2
2021/04/02 00:01:46;;;;;;;12.27;9.15;;;12.70;99.90;;;;;;5035193;28;20243;-39
2021/04/02 00:04:13;;;;;;;13.35;8.27;;;12.60;99.90;;;;;;5035133;28;20209;-39
2021/04/02 00:06:40;;;;;;;14.23;8.55;;;12.60;99.90;;;;;;5034896;28;20295;-40
2021/04/02 00:09:07;;;;;;;12.18;9.15;;;12.50;99.90;;;;;;5035192;28;20307;-39
2021/04/02 00:11:34;;;;;;;11.70;8.95;;;12.50;99.90;;;;;;5035015;28;20388;-40
2021/04/02 00:14:01;;;;;;;17.63;9.07;;;12.40;99.90;;;;;;5035039;28;20205;-39
2021/04/02 00:16:28;;;;;;;15.20;8.82;;;12.40;99.90;;;;;;5034906;28;20322;-40
2021/04/02 00:18:55;;;;;;;13.10;9.43;;;12.30;99.90;;;;;;5034643;28;20244;-39
2021/04/02 00:21:22;;;;;;;16.35;10.27;;;12.30;99.90;;;;;;5034508;28;20231;-40
2021/04/02 00:23:49;;;;;;;17.23;11.82;;;12.30;99.90;;;;;;5035024;28;20216;-39
2021/04/02 00:26:19;;;;;;;17.83;10.40;;;12.30;99.90;;;;;;5034770;28;20284;-39
2021/04/02 00:28:47;;;;;;;18.60;11.30;;;12.30;99.90;;;;;;5034655;28;20300;-39
2021/04/02 00:31:14;;;;;;;16.30;11.95;;;12.30;99.90;;;;;;5034639;28;20209;-39
2021/04/02 00:33:41;;;;;;;19.73;11.13;;;12.30;99.90;;;;;;5033950;28;20633;-39
2021/04/02 00:36:08;;;;;;;13.82;10.73;;;12.20;99.90;;;;;;5034627;28;20306;-40
2021/04/02 00:38:35;;;;;;;16.85;11.60;;;12.20;99.90;;;;;;5034577;28;20212;-39
2021/04/02 00:41:06;;;;;;;18.08;12.40;;;12.20;99.90;;;;;;5034415;28;20259;-39
2021/04/02 00:43:35;;;;;;;16.92;12.30;;;12.20;99.90;;;;;;5034608;28;20217;-39
2021/04/02 00:46:03;;;;;;;21.33;12.27;;;12.10;99.90;;;;;;5034396;28;20240;-39
2021/04/02 00:48:30;;;;;;;13.43;10.65;;;12.10;99.90;;;;;;5034095;28;20270;-40
2021/04/02 00:51:01;;;;;;;18.05;12.77;;;12.10;99.90;;;;;;5034395;28;20641;-39
2021/04/02 00:53:30;;;;;;;20.48;13.27;;;12.00;99.90;;;;;;5034109;28;20303;-39
2021/04/02 00:55:58;;;;;;;18.95;13.05;;;12.00;99.90;;;;;;5034028;28;20304;-39
2021/04/02 00:58:28;;;;;;;17.83;13.05;;;12.00;99.90;;;;;;5034157;28;20247;-39
2021/04/02 01:00:56;;;;;;;20.73;14.05;;;12.00;99.90;;;;;;5033940;28;20213;-39
2021/04/02 01:03:23;;;;;;;16.65;13.20;;;11.90;99.90;;;;;;5034149;28;20384;-39
2021/04/02 01:05:52;;;;;;;17.63;13.15;;;11.90;99.90;;;;;;5033006;28;20263;-39
2021/04/02 01:08:23;;;;;;;22.23;13.52;;;11.90;99.90;;;;;;5033771;28;20201;-39
2021/04/02 01:10:53;;;;;;;18.17;12.95;;;11.90;99.90;;;;;;5033735;28;20211;-39
2021/04/02 01:13:24;;;;;;;18.98;13.95;;;11.90;99.90;;;;;;5033644;28;20727;-39
2021/04/02 01:15:55;;;;;;;19.10;13.48;;;11.90;99.90;;;;;;5033862;28;20208;-39
2021/04/02 01:18:30;;;;;;;24.00;14.65;;;11.80;99.90;;;;;;5033544;28;20233;-39
2021/04/02 01:21:01;;;;;;;20.95;15.48;;;11.80;99.90;;;;;;5033782;28;20204;-39
2021/04/02 01:23:33;;;;;;;19.70;15.57;;;11.70;99.90;;;;;;5033132;28;20272;-39
2021/04/02 01:26:07;;;;;;;24.23;16.63;;;11.70;99.90;;;;;;5033466;28;20545;-39
2021/04/02 01:28:55;;;;;;;32.22;17.65;;;11.60;99.90;;;;;;5033266;28;20233;-38
2021/04/02 01:31:23;;;;;;;20.92;15.82;;;11.60;99.90;;;;;;5033368;28;20573;-38
2021/04/02 01:33:51;;;;;;;23.45;17.95;;;11.60;99.90;;;;;;5033358;28;20299;-38
2021/04/02 01:36:20;;;;;;;29.95;18.55;;;11.60;99.90;;;;;;5033059;28;20308;-39
2021/04/02 01:38:49;;;;;;;26.88;18.75;;;11.50;99.90;;;;;;5033616;28;20241;-38
2021/04/02 01:41:20;;;;;;;26.70;19.95;;;11.50;99.90;;;;;;5033191;28;20215;-38
2021/04/02 01:43:51;;;;;;;31.40;21.17;;;11.50;99.90;;;;;;5033044;28;20589;-39
2021/04/02 01:46:21;;;;;;;27.23;20.60;;;11.50;99.90;;;;;;5033069;28;20259;-38
2021/04/02 01:48:52;;;;;;;29.08;22.17;;;11.40;99.90;;;;;;5032965;28;20296;-39
2021/04/02 01:51:20;;;;;;;35.88;22.05;;;11.40;99.90;;;;;;5033144;28;20271;-39
2021/04/02 01:53:50;;;;;;;30.90;22.73;;;11.40;99.90;;;;;;5033045;28;20208;-39
2021/04/02 01:56:18;;;;;;;32.17;22.58;;;11.40;99.90;;;;;;5032763;28;20208;-39
2021/04/02 01:58:46;;;;;;;37.78;22.55;;;11.40;99.90;;;;;;5032705;28;20245;-39
2021/04/02 02:01:15;;;;;;;34.70;23.75;;;11.40;99.90;;;;;;5032707;28;20248;-39
2021/04/02 02:03:49;;;;;;;36.97;26.08;;;11.40;99.90;;;;;;5033042;28;20608;-39
2021/04/02 02:06:16;;;;;;;33.33;24.83;;;11.40;99.90;;;;;;5032910;28;20212;-39
2021/04/02 02:08:44;;;;;;;35.35;25.92;;;11.40;99.90;;;;;;5032760;28;20244;-39
2021/04/02 02:11:14;;;;;;;32.40;24.80;;;11.30;99.90;;;;;;5032749;28;20300;-39
2021/04/02 02:13:44;;;;;;;33.60;25.75;;;11.30;99.90;;;;;;5032419;28;20299;-39
2021/04/02 02:16:13;;;;;;;37.17;26.52;;;11.30;99.90;;;;;;5032452;28;20663;-39
2021/04/02 02:18:42;;;;;;;36.42;25.65;;;11.30;99.90;;;;;;5032220;28;20758;-39
2021/04/02 02:21:11;;;;;;;35.60;25.65;;;11.30;99.90;;;;;;5032626;28;20328;-39
2021/04/02 02:23:41;;;;;;;34.42;26.40;;;11.30;99.90;;;;;;5032627;28;20309;-39
2021/04/02 02:26:09;;;;;;;39.38;26.85;;;11.30;99.90;;;;;;5032395;28;20679;-39
2021/04/02 02:28:37;;;;;;;42.97;27.25;;;11.20;99.90;;;;;;5032443;28;20315;-39
2021/04/02 02:31:04;;;;;;;37.35;26.27;;;11.30;99.90;;;;;;5032612;28;20240;-39
2021/04/02 02:33:32;;;;;;;39.75;25.35;;;11.20;99.90;;;;;;5032546;28;20335;-39
2021/04/02 02:36:00;;;;;;;38.05;26.25;;;11.20;99.90;;;;;;5032483;28;20209;-39
2021/04/02 02:38:28;;;;;;;35.25;24.95;;;11.20;99.90;;;;;;5032329;28;20260;-39
2021/04/02 02:40:56;;;;;;;38.72;25.98;;;11.20;99.90;;;;;;5032041;28;20212;-39
2021/04/02 02:43:24;;;;;;;33.72;25.25;;;11.10;99.90;;;;;;5032413;28;20240;-39
2021/04/02 02:45:51;;;;;;;36.85;25.83;;;11.10;99.90;;;;;;5032195;28;20755;-39
2021/04/02 02:48:18;;;;;;;32.97;24.45;;;11.10;99.90;;;;;;5032102;28;20664;-39
2021/04/02 02:50:48;;;;;;;35.08;25.90;;;11.00;99.90;;;;;;5032275;28;20755;-39
2021/04/02 02:53:17;;;;;;;39.35;26.73;;;11.00;99.90;;;;;;5032163;28;20288;-38
2021/04/02 02:55:47;;;;;;;33.80;24.83;;;11.00;99.90;;;;;;5031843;28;20250;-38
2021/04/02 02:58:16;;;;;;;36.90;25.60;;;11.00;99.90;;;;;;5031974;28;20319;-39
2021/04/02 03:00:44;;;;;;;39.70;29.05;;;10.90;99.90;;;;;;5032201;28;20208;-41
2021/04/02 03:03:15;;;;;;;40.67;30.10;;;10.90;99.90;;;;;;5031907;28;20212;-39
2021/04/02 03:05:45;;;;;;;34.28;27.63;;;10.90;99.90;;;;;;5032078;28;20262;-38
2021/04/02 03:08:15;;;;;;;37.15;28.15;;;10.90;99.90;;;;;;5031832;28;20293;-39
2021/04/02 03:10:43;;;;;;;37.80;28.02;;;10.90;99.90;;;;;;5031787;28;20217;-39
2021/04/02 03:13:16;;;;;;;36.40;27.67;;;10.80;99.90;;;;;;5031996;28;20263;-38
2021/04/02 03:15:44;;;;;;;40.53;27.85;;;10.80;99.90;;;;;;5031901;28;20209;-39
2021/04/02 03:18:14;;;;;;;40.95;30.42;;;10.70;99.90;;;;;;5031755;28;20263;-39
2021/04/02 03:20:42;;;;;;;42.05;29.67;;;10.70;99.90;;;;;;5031694;28;20208;-39
2021/04/02 03:23:12;;;;;;;41.97;29.27;;;10.70;99.90;;;;;;5031682;28;20266;-38
2021/04/02 03:25:41;;;;;;;37.33;28.75;;;10.60;99.90;;;;;;5031715;28;20221;-38
2021/04/02 03:28:12;;;;;;;38.88;29.42;;;10.60;99.90;;;;;;5031558;28;20209;-38
2021/04/02 03:30:39;;;;;;;40.95;30.90;;;10.60;99.90;;;;;;5034859;28;20240;-38
2021/04/02 03:33:11;;;;;;;44.58;29.92;;;10.50;99.90;;;;;;5035700;28;20236;-39
2021/04/02 03:35:39;;;;;;;43.88;30.52;;;10.50;99.90;;;;;;5035732;28;20224;-39
2021/04/02 03:38:09;;;;;;;44.35;30.63;;;10.50;99.90;;;;;;5035466;28;20232;-39
2021/04/02 03:40:36;;;;;;;42.30;31.40;;;10.50;99.90;;;;;;5035785;28;20573;-38
2021/04/02 03:43:06;;;;;;;40.13;29.73;;;10.40;99.90;;;;;;5035474;28;20299;-39
2021/04/02 03:45:34;;;;;;;42.15;28.38;;;10.40;99.90;;;;;;5035367;28;20243;-39
2021/04/02 03:48:04;;;;;;;40.88;29.80;;;10.40;99.90;;;;;;5035619;28;20296;-39
2021/04/02 03:50:38;;;;;;;44.42;30.90;;;10.30;99.90;;;;;;5035390;28;20216;-39
2021/04/02 03:53:10;;;;;;;41.33;28.95;;;10.30;99.90;;;;;;5035115;28;20251;-39
2021/04/02 03:55:40;;;;;;;44.03;30.65;;;10.20;99.90;;;;;;5035374;28;20212;-38
2021/04/02 03:58:10;;;;;;;43.63;29.52;;;10.20;99.90;;;;;;5034991;28;20228;-38
2021/04/02 04:00:42;;;;;;;39.55;31.60;;;10.20;99.90;;;;;;5035337;28;20304;-38
2021/04/02 04:03:11;;;;;;;42.80;29.95;;;10.10;99.90;;;;;;5034797;28;20299;-38
2021/04/02 04:05:39;;;;;;;42.03;31.02;;;10.10;99.90;;;;;;5034367;28;20239;-38
2021/04/02 04:08:10;;;;;;;41.70;30.35;;;10.10;99.90;;;;;;5034562;28;20209;-40
2021/04/02 04:10:37;;;;;;;44.05;31.75;;;10.00;99.90;;;;;;5034937;28;20292;-40
2021/04/02 04:13:06;;;;;;;44.78;31.85;;;10.00;99.90;;;;;;5035038;28;20312;-39
2021/04/02 04:15:35;;;;;;;43.72;29.73;;;10.00;99.90;;;;;;5034904;28;20631;-40
2021/04/02 04:18:03;;;;;;;42.90;31.05;;;9.90;99.90;;;;;;5034808;28;20287;-40
2021/04/02 04:20:31;;;;;;;48.03;31.13;;;9.90;99.90;;;;;;5034901;28;20216;-39
2021/04/02 04:22:58;;;;;;;42.17;29.50;;;9.80;99.90;;;;;;5034428;28;20241;-39
2021/04/02 04:25:26;;;;;;;39.15;28.50;;;9.80;99.90;;;;;;5034808;28;20205;-39
2021/04/02 04:27:56;;;;;;;40.13;27.80;;;9.80;99.90;;;;;;5034388;28;20702;-39
2021/04/02 04:30:25;;;;;;;40.22;29.55;;;9.80;99.90;;;;;;5034404;28;20614;-40
2021/04/02 04:32:55;;;;;;;39.75;28.40;;;9.70;99.90;;;;;;5034499;28;20652;-39
2021/04/02 04:35:24;;;;;;;40.05;29.42;;;9.70;99.90;;;;;;5033926;28;20291;-40
2021/04/02 04:37:52;;;;;;;40.35;28.90;;;9.70;99.90;;;;;;5034165;28;20687;-40
2021/04/02 04:40:22;;;;;;;43.42;28.98;;;9.60;99.90;;;;;;5034599;28;20204;-39
2021/04/02 04:42:56;;;;;;;35.58;25.88;;;9.60;99.90;;;;;;5034408;28;20216;-39
2021/04/02 04:45:25;;;;;;;65.82;50.00;;;9.50;99.90;;;;;;5034234;28;20664;-40
2021/04/02 04:47:52;;;;;;;34.58;27.00;;;9.50;99.90;;;;;;5034105;28;20213;-39
2021/04/02 04:50:19;;;;;;;38.50;27.10;;;9.40;99.90;;;;;;5034428;28;20213;-40
2021/04/02 04:52:52;;;;;;;36.35;25.83;;;9.40;99.90;;;;;;5034065;28;20235;-40
2021/04/02 04:55:21;;;;;;;34.83;26.10;;;9.40;99.90;;;;;;5034237;28;20668;-39
2021/04/02 04:57:51;;;;;;;34.38;24.38;;;9.40;99.90;;;;;;5033970;28;20731;-40
2021/04/02 05:00:21;;;;;;;36.83;25.52;;;9.40;99.90;;;;;;5033975;28;20303;-40
2021/04/02 05:02:49;;;;;;;34.90;27.33;;;9.40;99.90;;;;;;5033884;28;20216;-39
2021/04/02 05:05:21;;;;;;;48.58;28.52;;;9.40;99.90;;;;;;5034140;28;20236;-39
2021/04/02 05:07:52;;;;;;;35.75;26.90;;;9.30;99.90;;;;;;5033740;28;20262;-39
2021/04/02 05:10:20;;;;;;;31.83;27.50;;;9.30;99.90;;;;;;5033413;28;20248;-39
2021/04/02 05:12:50;;;;;;;33.67;26.30;;;9.30;99.90;;;;;;5033646;28;20209;-38
2021/04/02 05:15:20;;;;;;;38.03;27.67;;;9.30;99.90;;;;;;5033781;28;20291;-39
2021/04/02 05:17:52;;;;;;;35.30;25.73;;;9.30;99.90;;;;;;5033578;28;20311;-39
2021/04/02 05:20:20;;;;;;;42.15;27.13;;;9.20;99.90;;;;;;5033567;28;20216;-39
2021/04/02 05:22:48;;;;;;;31.17;24.40;;;9.30;99.90;;;;;;5033467;28;20329;-39
2021/04/02 05:25:16;;;;;;;33.05;23.58;;;9.20;99.90;;;;;;5033383;28;20270;-39
2021/04/02 05:27:43;;;;;;;34.35;24.20;;;9.20;99.90;;;;;;5033807;28;20700;-39
2021/04/02 05:30:11;;;;;;;34.03;24.80;;;9.20;99.90;;;;;;5033617;28;20586;-39
2021/04/02 05:32:38;;;;;;;30.58;22.42;;;9.30;99.90;;;;;;5033419;28;20630;-39
2021/04/02 05:35:06;;;;;;;28.17;21.73;;;9.30;99.90;;;;;;5033352;28;20664;-39
2021/04/02 05:37:33;;;;;;;28.15;20.13;;;9.30;99.90;;;;;;5033164;28;20311;-39
2021/04/02 05:40:00;;;;;;;29.15;20.88;;;9.40;99.90;;;;;;5033034;28;20291;-39
2021/04/02 05:42:28;;;;;;;25.15;19.85;;;9.30;99.90;;;;;;5033274;28;20687;-39
2021/04/02 05:44:59;;;;;;;30.52;21.10;;;9.30;99.90;;;;;;5033040;28;20240;-39
2021/04/02 05:47:27;;;;;;;29.20;21.25;;;9.30;99.90;;;;;;5033265;28;20248;-39
2021/04/02 05:49:55;;;;;;;28.88;20.05;;;9.40;99.90;;;;;;5033166;28;20291;-39
2021/04/02 05:52:25;;;;;;;27.55;21.27;;;9.40;99.90;;;;;;5032951;28;20375;-39
2021/04/02 05:54:53;;;;;;;28.30;20.92;;;9.30;99.90;;;;;;5033242;28;20220;-39
2021/04/02 05:57:21;;;;;;;26.52;20.45;;;9.30;99.90;;;;;;5032961;28;20231;-39
2021/04/02 05:59:49;;;;;;;29.25;21.50;;;9.30;99.90;;;;;;5032969;28;20307;-39
2021/04/02 06:02:17;;;;;;;28.75;20.20;;;9.40;99.90;;;;;;5033005;28;20208;-39
2021/04/02 06:04:44;;;;;;;26.77;20.13;;;9.40;99.90;;;;;;5032958;28;20263;-39
2021/04/02 06:07:12;;;;;;;28.45;20.08;;;9.40;99.90;;;;;;5032897;28;20284;-41
2021/04/02 06:09:39;;;;;;;26.80;19.27;;;9.40;99.90;;;;;;5032954;28;20307;-40
2021/04/02 06:12:07;;;;;;;26.27;20.27;;;9.50;99.90;;;;;;5032846;28;20204;-40
2021/04/02 06:14:34;;;;;;;27.48;19.70;;;9.60;99.90;;;;;;5032817;28;20296;-40
2021/04/02 06:17:02;;;;;;;28.05;19.52;;;9.60;99.90;;;;;;5032591;28;20205;-40
2021/04/02 06:19:29;;;;;;;23.33;19.00;;;9.70;99.90;;;;;;5032819;28;20217;-40
2021/04/02 06:21:57;;;;;;;26.45;19.75;;;9.80;99.90;;;;;;5032560;28;20332;-40
2021/04/02 06:24:39;;;;;;;27.83;18.23;;;9.90;99.90;;;;;;5032624;28;20299;-40
2021/04/02 06:27:08;;;;;;;28.17;19.02;;;9.90;99.90;;;;;;5032534;28;20620;-40
2021/04/02 06:29:40;;;;;;;23.75;17.08;;;10.00;99.90;;;;;;5032419;28;20630;-40
2021/04/02 06:32:11;;;;;;;23.75;19.08;;;10.00;99.90;;;;;;5032370;28;20205;-41
2021/04/02 06:34:45;;;;;;;22.25;16.73;;;10.00;99.90;;;;;;5032606;28;20603;-40
2021/04/02 06:37:12;;;;;;;20.92;16.25;;;10.20;99.90;;;;;;5032799;28;20268;-40
2021/04/02 06:39:39;;;;;;;24.55;18.55;;;10.20;99.90;;;;;;5032366;28;20292;-38
2021/04/02 06:42:09;;;;;;;22.85;17.67;;;10.30;99.90;;;;;;5032290;28;20236;-39
2021/04/02 06:44:36;;;;;;;26.48;17.02;;;10.40;99.90;;;;;;5032032;28;20663;-39
2021/04/02 06:47:06;;;;;;;25.17;18.15;;;10.30;99.90;;;;;;5032384;28;20240;-39
2021/04/02 06:49:34;;;;;;;20.17;15.52;;;10.30;99.90;;;;;;5032364;28;20236;-39
2021/04/02 06:52:01;;;;;;;31.52;19.25;;;10.40;99.90;;;;;;5032250;28;20236;-39
2021/04/02 06:54:29;;;;;;;19.92;17.60;;;10.50;99.90;;;;;;5032099;28;20212;-39
2021/04/02 06:56:58;;;;;;;26.17;18.00;;;10.60;99.90;;;;;;5031884;28;20729;-39
2021/04/02 06:59:25;;;;;;;26.25;18.02;;;10.60;99.90;;;;;;5032027;28;20212;-39
2021/04/02 07:01:55;;;;;;;21.70;18.38;;;10.70;99.90;;;;;;5032076;28;20248;-39
2021/04/02 07:04:24;;;;;;;19.88;17.10;;;10.80;99.90;;;;;;5033034;28;20285;-39
2021/04/02 07:06:53;;;;;;;20.33;17.70;;;11.00;99.90;;;;;;5036205;28;20205;-39
2021/04/02 07:09:23;;;;;;;24.23;18.52;;;11.20;99.90;;;;;;5036040;28;20291;-39
2021/04/02 07:11:55;;;;;;;23.73;18.50;;;11.30;99.90;;;;;;5036108;28;20217;-39
2021/04/02 07:14:23;;;;;;;25.20;18.08;;;11.40;99.90;;;;;;5035938;28;20683;-39
2021/04/02 07:16:51;;;;;;;27.17;18.90;;;11.50;99.90;;;;;;5036116;28;20212;-39
2021/04/02 07:19:19;;;;;;;26.38;18.75;;;11.60;99.90;;;;;;5035766;28;20236;-39
2021/04/02 07:21:49;;;;;;;24.23;18.98;;;11.60;99.90;;;;;;5035908;28;20691;-39
2021/04/02 07:24:18;;;;;;;27.48;20.88;;;11.80;99.90;;;;;;5035639;28;20243;-40
2021/04/02 07:26:46;;;;;;;24.77;20.70;;;11.80;99.90;;;;;;5037190;28;20690;-40
2021/04/02 07:29:15;;;;;;;25.92;20.15;;;11.80;99.90;;;;;;5036949;28;20220;-39
2021/04/02 07:31:43;;;;;;;30.27;20.40;;;11.80;99.90;;;;;;5036447;28;20217;-39
2021/04/02 07:34:10;;;;;;;26.35;20.67;;;11.90;99.90;;;;;;5036429;28;20311;-39
2021/04/02 07:36:37;;;;;;;28.90;19.98;;;12.00;99.90;;;;;;5036168;28;20209;-39
2021/04/02 07:39:06;;;;;;;30.05;20.73;;;12.00;99.90;;;;;;5036909;28;20769;-39
2021/04/02 07:41:39;;;;;;;25.60;19.92;;;12.10;99.90;;;;;;5036880;28;20208;-39
2021/04/02 07:44:07;;;;;;;23.25;19.27;;;12.10;99.90;;;;;;5036671;28;20291;-39
2021/04/02 07:46:35;;;;;;;26.95;19.92;;;12.10;99.90;;;;;;5036833;28;20205;-39
2021/04/02 07:49:07;;;;;;;22.38;19.88;;;12.10;99.90;;;;;;5036436;28;20204;-39
2021/04/02 07:51:41;;;;;;;27.20;20.98;;;12.30;99.90;;;;;;5037026;28;20244;-39
2021/04/02 07:54:13;;;;;;;27.80;20.05;;;12.60;99.90;;;;;;5036148;28;20636;-38
2021/04/02 07:56:43;;;;;;;24.75;19.52;;;12.70;99.70;;;;;;5035119;28;20258;-38
2021/04/02 07:59:10;;;;;;;27.08;20.40;;;12.90;99.40;;;;;;5034946;28;20295;-39
2021/04/02 08:01:37;;;;;;;25.58;21.85;;;12.80;99.30;;;;;;5035018;28;20205;-39
2021/04/02 08:04:04;;;;;;;29.15;23.63;;;12.70;99.50;;;;;;5035159;28;20624;-39
2021/04/02 08:06:33;;;;;;;26.15;22.38;;;12.60;99.70;;;;;;5035275;28;20300;-38
2021/04/02 08:09:02;;;;;;;27.80;22.88;;;12.60;99.80;;;;;;5035495;28;20209;-39
2021/04/02 08:11:31;;;;;;;28.20;23.20;;;12.70;99.90;;;;;;5034967;28;20224;-40
2021/04/02 08:14:01;;;;;;;26.65;22.00;;;12.80;99.60;;;;;;5035702;28;20216;-40
2021/04/02 08:16:45;;;;;;;31.98;25.38;;;12.90;99.50;;;;;;5035476;28;20290;-39
2021/04/02 08:19:15;;;;;;;26.95;22.48;;;12.90;99.40;;;;;;5034941;28;20316;-39
2021/04/02 08:21:44;;;;;;;37.83;28.73;;;12.80;99.50;;;;;;5034665;28;20786;-39
2021/04/02 08:24:13;;;;;;;37.55;28.15;;;12.80;99.40;;;;;;5034651;28;20215;-40
2021/04/02 08:26:41;;;;;;;34.35;28.80;;;12.80;99.30;;;;;;5034401;28;20267;-40
2021/04/02 08:29:11;;;;;;;33.88;28.23;;;12.80;99.20;;;;;;5034661;28;20300;-40
2021/04/02 08:31:41;;;;;;;37.88;30.20;;;12.80;99.00;;;;;;5034460;28;20239;-38
2021/04/02 08:34:09;;;;;;;35.88;29.38;;;12.80;98.80;;;;;;5034472;28;20727;-40
2021/04/02 08:36:38;;;;;;;38.00;30.10;;;12.80;98.70;;;;;;5034311;28;20205;-40
2021/04/02 08:39:06;;;;;;;33.25;27.40;;;12.80;98.60;;;;;;5034047;28;20632;-38
2021/04/02 08:41:34;;;;;;;36.55;29.10;;;12.80;98.50;;;;;;5034310;28;20213;-39
2021/04/02 08:44:01;;;;;;;34.60;30.70;;;12.80;98.40;;;;;;5034283;28;20561;-40
2021/04/02 08:46:41;;;;;;;40.95;30.85;;;12.80;98.30;;;;;;5034126;28;20204;-37
2021/04/02 08:49:10;;;;;;;35.92;28.70;;;12.90;98.20;;;;;;5034088;28;20295;-38
2021/04/02 08:51:38;;;;;;;35.15;30.13;;;12.90;98.10;;;;;;5034039;28;20215;-38
2021/04/02 08:54:11;;;;;;;34.40;28.25;;;12.90;97.90;;;;;;5034085;28;20296;-39
2021/04/02 08:56:38;;;;;;;34.28;30.02;;;13.00;97.80;;;;;;5033859;28;20290;-38
2021/04/02 08:59:09;;;;;;;39.65;30.80;;;13.10;97.60;;;;;;5033842;28;20364;-39
2021/04/02 09:01:41;;;;;;;36.60;31.10;;;13.20;97.30;;;;;;5033812;28;20213;-39
2021/04/02 09:04:11;;;;;;;34.65;30.30;;;13.40;97.10;;;;;;5033813;28;20216;-41
2021/04/02 09:06:38;;;;;;;40.58;32.80;;;13.60;96.80;;;;;;5033883;28;20209;-40
2021/04/02 09:09:14;;;;;;;38.53;31.52;;;13.70;96.50;;;;;;5033561;28;20732;-40
2021/04/02 09:11:42;;;;;;;37.78;31.95;;;13.70;96.30;;;;;;5033576;28;20263;-40
2021/04/02 09:14:10;;;;;;;39.65;32.40;;;13.70;96.20;;;;;;5033542;28;20239;-41
2021/04/02 09:16:41;;;;;;;38.05;32.80;;;13.90;96.00;;;;;;5033390;28;20727;-40
2021/04/02 09:19:09;;;;;;;37.80;31.50;;;14.10;95.60;;;;;;5033379;28;20240;-45
2021/04/02 09:21:52;;;;;;;35.90;29.02;;;14.30;95.30;;;;;;5033196;28;20614;-40
2021/04/02 09:24:19;;;;;;;38.17;29.75;;;14.40;94.90;;;;;;5033468;28;20208;-40
2021/04/02 09:26:47;;;;;;;36.30;29.30;;;14.50;94.80;;;;;;5032796;28;20212;-40
2021/04/02 09:29:15;;;;;;;32.88;28.67;;;14.40;94.70;;;;;;5033243;28;20707;-40
2021/04/02 09:31:44;;;;;;;34.13;29.42;;;14.30;94.80;;;;;;5033396;28;20643;-40
2021/04/02 09:34:18;;;;;;;32.05;27.55;;;14.20;94.90;;;;;;5033817;28;20248;-40
2021/04/02 09:36:47;;;;;;;32.38;27.45;;;14.10;94.90;;;;;;5033879;28;20208;-40
2021/04/02 09:39:17;;;;;;;29.38;26.27;;;14.10;94.80;;;;;;5033331;28;20287;-40
2021/04/02 09:41:49;;;;;;;28.77;25.45;;;14.10;94.80;;;;;;5033381;28;20204;-38
2021/04/02 09:44:18;;;;;;;28.60;25.15;;;14.10;94.60;;;;;;5033199;28;20299;-39
2021/04/02 09:46:48;;;;;;;27.67;24.73;;;14.10;94.50;;;;;;5033047;28;20236;-39
2021/04/02 09:49:17;;;;;;;31.40;25.73;;;14.20;94.30;;;;;;5032898;28;20705;-40
2021/04/02 09:51:46;;;;;;;29.40;25.25;;;14.40;94.10;;;;;;5032904;28;20215;-40
2021/04/02 09:54:15;;;;;;;29.23;25.33;;;14.40;94.10;;;;;;5032617;28;20245;-40
2021/04/02 09:56:42;;;;;;;29.38;24.40;;;14.40;93.80;;;;;;5032769;28;20295;-40
2021/04/02 09:59:10;;;;;;;31.58;24.00;;;14.50;93.70;;;;;;5032724;28;20315;-39
2021/04/02 10:01:39;;;;;;;33.63;24.23;;;14.60;93.50;;;;;;5032554;28;20209;-40
2021/04/02 10:04:08;;;;;;;29.58;24.50;;;14.80;93.20;;;;;;5033151;28;20235;-40
2021/04/02 10:06:36;;;;;;;30.48;25.33;;;14.80;93.40;;;;;;5032475;28;20208;-41
2021/04/02 10:09:04;;;;;;;27.77;24.42;;;14.80;93.00;;;;;;5032692;28;20359;-41
2021/04/02 10:11:32;;;;;;;32.58;23.85;;;14.80;93.00;;;;;;5032393;28;20694;-41
2021/04/02 10:14:00;;;;;;;34.67;25.80;;;14.70;93.00;;;;;;5032516;28;20208;-41
2021/04/02 10:16:27;;;;;;;30.40;24.00;;;14.80;93.00;;;;;;5032200;28;20671;-40
2021/04/02 10:18:54;;;;;;;32.70;24.75;;;15.10;92.70;;;;;;5032140;28;20271;-40
2021/04/02 10:21:23;;;;;;;30.55;25.55;;;15.40;92.20;;;;;;5031846;28;20208;-39
2021/04/02 10:23:51;;;;;;;30.10;24.63;;;15.50;91.80;;;;;;5033932;28;20701;-39
2021/04/02 10:26:19;;;;;;;28.60;25.33;;;15.40;91.80;;;;;;5032384;28;20301;-40
2021/04/02 10:28:46;;;;;;;30.00;23.88;;;15.50;91.80;;;;;;5032189;28;20240;-39
2021/04/02 10:31:14;;;;;;;25.80;22.50;;;15.60;91.60;;;;;;5032081;28;20231;-39
2021/04/02 10:33:44;;;;;;;25.95;23.17;;;15.70;91.30;;;;;;5031933;28;20685;-39
2021/04/02 10:36:11;;;;;;;23.58;21.20;;;15.60;91.40;;;;;;5031987;28;20690;-39
2021/04/02 10:38:39;;;;;;;25.65;22.58;;;15.50;91.20;;;;;;5031928;28;20239;-39
2021/04/02 10:41:06;;;;;;;26.92;21.80;;;15.50;91.10;;;;;;5032027;28;20292;-38
2021/04/02 10:43:33;;;;;;;24.23;21.63;;;15.50;90.90;;;;;;5031842;28;20213;-38
2021/04/02 10:46:01;;;;;;;24.67;21.63;;;15.40;90.90;;;;;;5031787;28;20208;-38
2021/04/02 10:48:28;;;;;;;28.00;22.00;;;15.20;91.00;;;;;;5031905;28;20240;-38
2021/04/02 10:50:56;;;;;;;23.17;19.77;;;14.90;91.30;;;;;;5032131;28;20219;-38
2021/04/02 10:53:25;;;;;;;22.33;20.00;;;14.70;91.20;;;;;;5032054;28;20209;-38
2021/04/02 10:55:53;;;;;;;22.25;19.90;;;14.60;91.50;;;;;;5031916;28;20287;-38
2021/04/02 10:58:21;;;;;;;24.80;18.73;;;14.50;91.70;;;;;;5031946;28;20568;-38
2021/04/02 11:00:48;;;;;;;19.90;17.73;;;14.60;91.30;;;;;;5031868;28;20240;-38
2021/04/02 11:03:14;;;;;;;19.38;17.38;;;14.70;90.70;;;;;;5031893;28;20565;-38
2021/04/02 11:05:42;;;;;;;16.52;14.82;;;14.80;90.50;;;;;;5032203;28;20212;-38
2021/04/02 11:08:09;;;;;;;17.98;16.10;;;14.90;89.60;;;;;;5032486;28;20759;-38
2021/04/02 11:10:36;;;;;;;17.80;15.93;;;15.00;89.30;;;;;;5031901;28;20290;-38
2021/04/02 11:13:04;;;;;;;19.52;17.48;;;15.30;88.00;;;;;;5031689;28;20251;-38
2021/04/02 11:15:31;;;;;;;19.45;17.30;;;15.40;87.30;;;;;;5031831;28;20299;-38
2021/04/02 11:17:58;;;;;;;18.65;16.70;;;15.40;86.70;;;;;;5032268;28;20228;-39
2021/04/02 11:20:28;;;;;;;19.27;17.35;;;15.20;87.10;;;;;;5032085;28;20555;-45
2021/04/02 11:22:56;;;;;;;19.17;16.88;;;15.00;87.70;;;;;;5031628;28;20781;-40
2021/04/02 11:25:24;;;;;;;22.17;18.35;;;14.90;87.80;;;;;;5031818;28;20213;-39
2021/04/02 11:27:52;;;;;;;17.33;15.40;;;14.80;88.00;;;;;;5032447;28;20255;-37
2021/04/02 11:30:21;;;;;;;20.30;17.38;;;14.70;88.40;;;;;;5032217;28;20745;-37
2021/04/02 11:32:48;;;;;;;18.75;16.52;;;14.50;88.50;;;;;;5032019;28;20255;-38
2021/04/02 11:35:17;;;;;;;16.92;15.13;;;14.40;88.40;;;;;;5031959;28;20209;-37
2021/04/02 11:37:44;;;;;;;17.40;15.52;;;14.30;88.90;;;;;;5031684;28;20217;-38
2021/04/02 11:40:13;;;;;;;18.90;15.02;;;14.40;88.60;;;;;;5031905;28;20292;-38
2021/04/02 11:42:40;;;;;;;17.75;14.43;;;14.50;88.40;;;;;;5031841;28;20209;-39
2021/04/02 11:45:09;;;;;;;16.33;14.32;;;14.50;87.50;;;;;;5032131;28;20236;-38
2021/04/02 11:47:37;;;;;;;18.58;14.85;;;14.40;87.60;;;;;;5031812;28;20240;-38
2021/04/02 11:50:06;;;;;;;16.60;14.77;;;14.30;87.70;;;;;;5032259;28;20286;-39
2021/04/02 11:52:34;;;;;;;15.90;14.05;;;14.40;87.60;;;;;;5035392;28;20215;-39
2021/04/02 11:55:01;;;;;;;15.38;12.70;;;14.60;86.70;;;;;;5035196;28;20218;-39
2021/04/02 11:57:29;;;;;;;13.38;12.18;;;14.80;85.70;;;;;;5035152;28;20235;-39
2021/04/02 11:59:56;;;;;;;14.23;11.70;;;14.90;85.00;;;;;;5035121;28;20263;-39
2021/04/02 12:02:23;;;;;;;13.27;11.90;;;14.90;83.60;;;;;;5035226;28;20687;-39
2021/04/02 12:04:51;;;;;;;13.32;11.80;;;14.80;83.10;;;;;;5035211;28;20347;-39
2021/04/02 12:07:17;;;;;;;13.13;11.63;;;14.70;83.20;;;;;;5034795;28;20235;-39
2021/04/02 12:09:44;;;;;;;13.20;11.90;;;14.70;82.40;;;;;;5034831;28;20296;-40
2021/04/02 12:12:12;;;;;;;12.43;11.23;;;14.80;82.30;;;;;;5034890;28;20248;-39
2021/04/02 12:14:39;;;;;;;12.20;10.90;;;14.90;81.20;;;;;;5035124;28;20204;-39
2021/04/02 12:17:06;;;;;;;14.02;11.20;;;15.00;80.70;;;;;;5034598;28;20287;-39
2021/04/02 12:19:33;;;;;;;12.35;11.15;;;15.20;79.70;;;;;;5034453;28;20240;-39
2021/04/02 12:22:01;;;;;;;11.02;9.95;;;15.30;79.00;;;;;;5034262;28;20244;-38
2021/04/02 12:24:29;;;;;;;12.50;11.10;;;15.50;78.00;;;;;;5034482;28;20232;-38
2021/04/02 12:26:56;;;;;;;10.98;9.88;;;15.50;76.80;;;;;;5034370;28;20315;-39
2021/04/02 12:29:23;;;;;;;12.45;11.18;;;15.40;76.50;;;;;;5034400;28;20518;-39
2021/04/02 12:31:50;;;;;;;11.57;10.48;;;15.30;76.50;;;;;;5034167;28;20209;-37
2021/04/02 12:34:17;;;;;;;12.60;9.60;;;15.20;76.70;;;;;;5034217;28;20236;-38
2021/04/02 12:36:44;;;;;;;12.02;10.82;;;15.10;75.80;;;;;;5034107;28;20209;-38